Kezdőlap
METAR-TAF:

METAR-TAF

Repülőterek :

Qeshm, Irán

földrajzi szélesség: 26-45-18N, földrajzi hosszúság: 055-54-08E, magasság: 12 m

Jelenlegi meteorológiai megfigyelések

A jelentés 55 perccel ezelõtt készült, 06:00 UTC
Nyugat-délnyugati szél 14 kt
Hőmérséklet 36°C
Páratartalom 64%
Légköri nyomás 1002 hPa
Látótávolság: 8000 m

METAR: OIKQ 280600Z 24014KT 8000 NSC 36/28 Q1002 NOSIG

Idő: 11:25 (06:55 UTC)


TAF: hiányzik

Meteorológiai megfigyelések és előrejelzések több, mint 4000 repülőtéren (METAR és TAF jelentéseket).

A térképen piros és sárga pontok jelzik az elérhető meteorológiai állomásokat.

Mozgassa az egeret a pont fölött, hogy megjelenjen az állomás neve.

Azután kattintson az időjárási megfigyelések és előrejelzések megtekintéséhez.

A térkép megváltoztatása: kattintson a fekete keresztel jelölt zöld gombra ráközelítéshez, a vonallal jelölt zöld gombra távolításhoz, vagy a zöld nyilakra a szomszédos térképek eléréséhez.


METAR-TAF: